This is the latest recevied weather packets stored in our database for station/object EA1IXY-2. If no packets are shown the sender has not sent any weather packets the latest 10 day(s).
| Time | Temp. | Humidity | Pressure | Rain* | Wind** | Luminosity | Snow |
|---|---|---|---|---|---|---|---|
| 1777553550 | 39.44° C | 18% | 930.3 hPa | - | - | - | - |
| 1777552648 | 39.44° C | 18% | 930.3 hPa | - | - | - | - |
| 1777551748 | 38.33° C | 17% | 929.1 hPa | - | - | - | - |
| 1777550847 | 39.44° C | 18% | 930.5 hPa | - | - | - | - |
| 1777549947 | 39.44° C | 17% | 930.2 hPa | - | - | - | - |
| 1777549047 | 39.44° C | 18% | 930.2 hPa | - | - | - | - |
| 1777548147 | 39.44° C | 17% | 930.2 hPa | - | - | - | - |
| 1777547247 | 39.44° C | 17% | 930.2 hPa | - | - | - | - |
| 1777546347 | 40° C | 16% | 930.2 hPa | - | - | - | - |
| 1777544547 | 38.33° C | 17% | 928.9 hPa | - | - | - | - |
| 1777532822 | 37.22° C | 17% | 928.8 hPa | - | - | - | - |
| 1777531922 | 37.78° C | 16% | 928.7 hPa | - | - | - | - |
| 1777531022 | 38.33° C | 19% | 928.6 hPa | - | - | - | - |
| 1777530121 | 37.78° C | 19% | 927.6 hPa | - | - | - | - |
| 1777529221 | 38.33° C | 18% | 928.3 hPa | - | - | - | - |
| 1777528321 | 38.33° C | 19% | 928.2 hPa | - | - | - | - |
| 1777527421 | 38.33° C | 19% | 928.1 hPa | - | - | - | - |
| 1777525621 | 38.33° C | 19% | 927.9 hPa | - | - | - | - |
| 1777524721 | 38.89° C | 19% | 928 hPa | - | - | - | - |
| 1777523821 | 38.89° C | 19% | 927.6 hPa | - | - | - | - |
| 1777522921 | 38.33° C | 19% | 927.8 hPa | - | - | - | - |
| 1777522009 | 38.89° C | 19% | 927.5 hPa | - | - | - | - |
| 1777521109 | 38.33° C | 19% | 927.4 hPa | - | - | - | - |
| 1777520209 | 38.89° C | 19% | 927.5 hPa | - | - | - | - |
| 1777519308 | 38.89° C | 19% | 927.5 hPa | - | - | - | - |
* Rain since midnight (hover to see other rain measurements)
** Current wind speed in m/s (hover to see current wind gust speed)